sensor_id;sensor_type;location;lat;lon;timestamp;pressure;altitude;pressure_sealevel;temperature
70831;BMP180;58451;51.550;7.208;2023-04-24T00:00:15;99319.60;;;10.70
70831;BMP180;58451;51.550;7.208;2023-04-24T00:01:49;99320.20;;;10.70
70831;BMP180;58451;51.550;7.208;2023-04-24T00:03:23;99326.20;;;10.70
70831;BMP180;58451;51.550;7.208;2023-04-24T00:04:55;99319.00;;;10.74
70831;BMP180;58451;51.550;7.208;2023-04-24T00:06:27;99316.60;;;10.80
70831;BMP180;58451;51.550;7.208;2023-04-24T00:08:04;99312.60;;;10.76
70831;BMP180;58451;51.550;7.208;2023-04-24T00:09:36;99316.40;;;10.74
70831;BMP180;58451;51.550;7.208;2023-04-24T00:11:08;99311.40;;;10.78
70831;BMP180;58451;51.550;7.208;2023-04-24T00:12:41;99316.00;;;10.80
70831;BMP180;58451;51.550;7.208;2023-04-24T00:14:13;99308.00;;;10.80
70831;BMP180;58451;51.550;7.208;2023-04-24T00:15:44;99308.00;;;10.80
70831;BMP180;58451;51.550;7.208;2023-04-24T00:17:16;99311.80;;;10.80
70831;BMP180;58451;51.550;7.208;2023-04-24T00:18:51;99311.60;;;10.80
70831;BMP180;58451;51.550;7.208;2023-04-24T00:20:24;99311.00;;;10.80
70831;BMP180;58451;51.550;7.208;2023-04-24T00:21:56;99317.20;;;10.80
70831;BMP180;58451;51.550;7.208;2023-04-24T00:23:28;99318.20;;;10.82
70831;BMP180;58451;51.550;7.208;2023-04-24T00:24:59;99318.00;;;10.80
70831;BMP180;58451;51.550;7.208;2023-04-24T00:26:31;99324.40;;;10.80
70831;BMP180;58451;51.550;7.208;2023-04-24T00:28:03;99324.20;;;10.80
70831;BMP180;58451;51.550;7.208;2023-04-24T00:29:35;99319.00;;;10.80
70831;BMP180;58451;51.550;7.208;2023-04-24T00:31:06;99322.20;;;10.80
70831;BMP180;58451;51.550;7.208;2023-04-24T00:32:38;99320.60;;;10.80
70831;BMP180;58451;51.550;7.208;2023-04-24T00:34:10;99317.60;;;10.80
70831;BMP180;58451;51.550;7.208;2023-04-24T00:35:43;99319.80;;;10.80
70831;BMP180;58451;51.550;7.208;2023-04-24T00:37:15;99314.60;;;10.80
70831;BMP180;58451;51.550;7.208;2023-04-24T00:38:48;99312.80;;;10.80
70831;BMP180;58451;51.550;7.208;2023-04-24T00:40:20;99320.40;;;10.80
70831;BMP180;58451;51.550;7.208;2023-04-24T00:41:52;99313.80;;;10.80
70831;BMP180;58451;51.550;7.208;2023-04-24T00:43:24;99311.40;;;10.70
70831;BMP180;58451;51.550;7.208;2023-04-24T00:44:58;99308.00;;;10.70
70831;BMP180;58451;51.550;7.208;2023-04-24T00:46:31;99306.20;;;10.70
70831;BMP180;58451;51.550;7.208;2023-04-24T00:48:04;99304.20;;;10.62
70831;BMP180;58451;51.550;7.208;2023-04-24T00:49:36;99303.80;;;10.60
70831;BMP180;58451;51.550;7.208;2023-04-24T00:51:08;99314.40;;;10.60
70831;BMP180;58451;51.550;7.208;2023-04-24T00:52:40;99313.00;;;10.60
70831;BMP180;58451;51.550;7.208;2023-04-24T00:54:13;99316.20;;;10.60
70831;BMP180;58451;51.550;7.208;2023-04-24T00:55:45;99318.00;;;10.60
70831;BMP180;58451;51.550;7.208;2023-04-24T00:57:19;99320.20;;;10.56
70831;BMP180;58451;51.550;7.208;2023-04-24T00:58:51;99314.40;;;10.50
70831;BMP180;58451;51.550;7.208;2023-04-24T01:00:24;99317.60;;;10.50
70831;BMP180;58451;51.550;7.208;2023-04-24T01:04:17;99312.40;;;10.40
70831;BMP180;58451;51.550;7.208;2023-04-24T01:05:50;99314.80;;;10.40
70831;BMP180;58451;51.550;7.208;2023-04-24T01:07:22;99313.80;;;10.34
70831;BMP180;58451;51.550;7.208;2023-04-24T01:08:55;99322.40;;;10.30
70831;BMP180;58451;51.550;7.208;2023-04-24T01:10:29;99321.20;;;10.30
70831;BMP180;58451;51.550;7.208;2023-04-24T01:12:01;99322.00;;;10.20
70831;BMP180;58451;51.550;7.208;2023-04-24T01:13:34;99318.80;;;10.20
70831;BMP180;58451;51.550;7.208;2023-04-24T01:15:08;99322.80;;;10.14
70831;BMP180;58451;51.550;7.208;2023-04-24T01:16:40;99322.80;;;10.10
70831;BMP180;58451;51.550;7.208;2023-04-24T01:18:13;99318.20;;;10.10
70831;BMP180;58451;51.550;7.208;2023-04-24T01:19:46;99324.60;;;10.10
70831;BMP180;58451;51.550;7.208;2023-04-24T01:21:20;99322.80;;;10.00
70831;BMP180;58451;51.550;7.208;2023-04-24T01:22:54;99330.60;;;10.00
70831;BMP180;58451;51.550;7.208;2023-04-24T01:24:28;99326.80;;;10.00
70831;BMP180;58451;51.550;7.208;2023-04-24T01:26:00;99326.40;;;10.00
70831;BMP180;58451;51.550;7.208;2023-04-24T01:27:32;99324.60;;;10.00
70831;BMP180;58451;51.550;7.208;2023-04-24T01:29:04;99315.80;;;10.00
70831;BMP180;58451;51.550;7.208;2023-04-24T01:30:36;99332.80;;;9.98
70831;BMP180;58451;51.550;7.208;2023-04-24T01:32:08;99326.20;;;9.94
70831;BMP180;58451;51.550;7.208;2023-04-24T01:33:42;99321.60;;;9.90
70831;BMP180;58451;51.550;7.208;2023-04-24T01:35:14;99322.60;;;9.90
70831;BMP180;58451;51.550;7.208;2023-04-24T01:36:46;99317.40;;;9.90
70831;BMP180;58451;51.550;7.208;2023-04-24T01:38:18;99317.60;;;9.90
70831;BMP180;58451;51.550;7.208;2023-04-24T01:39:50;99319.20;;;9.80
70831;BMP180;58451;51.550;7.208;2023-04-24T01:41:23;99322.80;;;9.80
70831;BMP180;58451;51.550;7.208;2023-04-24T01:42:56;99327.00;;;9.78
70831;BMP180;58451;51.550;7.208;2023-04-24T01:44:29;99325.00;;;9.70
70831;BMP180;58451;51.550;7.208;2023-04-24T01:46:01;99326.60;;;9.70
70831;BMP180;58451;51.550;7.208;2023-04-24T01:47:34;99330.40;;;9.70
70831;BMP180;58451;51.550;7.208;2023-04-24T01:49:06;99336.00;;;9.70
70831;BMP180;58451;51.550;7.208;2023-04-24T01:50:38;99332.00;;;9.62
70831;BMP180;58451;51.550;7.208;2023-04-24T01:52:10;99329.80;;;9.60
70831;BMP180;58451;51.550;7.208;2023-04-24T01:53:41;99329.20;;;9.60
70831;BMP180;58451;51.550;7.208;2023-04-24T01:55:13;99332.60;;;9.60
70831;BMP180;58451;51.550;7.208;2023-04-24T01:56:46;99331.40;;;9.60
70831;BMP180;58451;51.550;7.208;2023-04-24T01:58:18;99331.80;;;9.56
70831;BMP180;58451;51.550;7.208;2023-04-24T01:59:51;99326.20;;;9.50
70831;BMP180;58451;51.550;7.208;2023-04-24T02:01:24;99327.40;;;9.50
70831;BMP180;58451;51.550;7.208;2023-04-24T02:02:56;99331.80;;;9.50
70831;BMP180;58451;51.550;7.208;2023-04-24T02:04:30;99330.40;;;9.40
70831;BMP180;58451;51.550;7.208;2023-04-24T02:06:01;99332.20;;;9.40
70831;BMP180;58451;51.550;7.208;2023-04-24T02:07:35;99323.00;;;9.40
70831;BMP180;58451;51.550;7.208;2023-04-24T02:09:07;99326.60;;;9.32
70831;BMP180;58451;51.550;7.208;2023-04-24T02:10:39;99325.00;;;9.30
70831;BMP180;58451;51.550;7.208;2023-04-24T02:12:11;99330.20;;;9.28
70831;BMP180;58451;51.550;7.208;2023-04-24T02:13:43;99332.00;;;9.22
70831;BMP180;58451;51.550;7.208;2023-04-24T02:15:15;99331.60;;;9.20
70831;BMP180;58451;51.550;7.208;2023-04-24T02:16:47;99334.00;;;9.20
70831;BMP180;58451;51.550;7.208;2023-04-24T02:18:19;99328.40;;;9.10
70831;BMP180;58451;51.550;7.208;2023-04-24T02:19:51;99326.80;;;9.10
70831;BMP180;58451;51.550;7.208;2023-04-24T02:21:23;99327.80;;;9.10
70831;BMP180;58451;51.550;7.208;2023-04-24T02:22:54;99331.00;;;9.08
70831;BMP180;58451;51.550;7.208;2023-04-24T02:24:26;99337.00;;;9.00
70831;BMP180;58451;51.550;7.208;2023-04-24T02:26:12;99335.40;;;9.00
70831;BMP180;58451;51.550;7.208;2023-04-24T02:27:44;99340.60;;;9.00
70831;BMP180;58451;51.550;7.208;2023-04-24T02:29:16;99341.60;;;9.00
70831;BMP180;58451;51.550;7.208;2023-04-24T02:30:48;99335.00;;;9.00
70831;BMP180;58451;51.550;7.208;2023-04-24T02:32:19;99336.40;;;9.00
70831;BMP180;58451;51.550;7.208;2023-04-24T02:33:51;99334.60;;;9.00
70831;BMP180;58451;51.550;7.208;2023-04-24T02:35:23;99340.80;;;9.00
70831;BMP180;58451;51.550;7.208;2023-04-24T02:36:55;99335.60;;;9.00
70831;BMP180;58451;51.550;7.208;2023-04-24T02:38:27;99333.20;;;9.00
70831;BMP180;58451;51.550;7.208;2023-04-24T02:39:59;99332.40;;;9.00
70831;BMP180;58451;51.550;7.208;2023-04-24T02:41:31;99334.40;;;9.02
70831;BMP180;58451;51.550;7.208;2023-04-24T02:43:04;99343.20;;;9.02
70831;BMP180;58451;51.550;7.208;2023-04-24T02:44:36;99340.00;;;9.00
70831;BMP180;58451;51.550;7.208;2023-04-24T02:46:07;99337.80;;;9.00
70831;BMP180;58451;51.550;7.208;2023-04-24T02:47:39;99340.60;;;9.00
70831;BMP180;58451;51.550;7.208;2023-04-24T02:49:11;99342.20;;;9.00
70831;BMP180;58451;51.550;7.208;2023-04-24T02:50:44;99339.40;;;9.00
70831;BMP180;58451;51.550;7.208;2023-04-24T02:52:16;99343.00;;;8.94
70831;BMP180;58451;51.550;7.208;2023-04-24T02:53:48;99348.20;;;8.90
70831;BMP180;58451;51.550;7.208;2023-04-24T02:55:20;99341.60;;;8.90
70831;BMP180;58451;51.550;7.208;2023-04-24T02:56:51;99348.00;;;8.90
70831;BMP180;58451;51.550;7.208;2023-04-24T02:58:24;99340.60;;;8.90
70831;BMP180;58451;51.550;7.208;2023-04-24T02:59:56;99346.20;;;8.90
70831;BMP180;58451;51.550;7.208;2023-04-24T03:01:28;99349.60;;;8.90
70831;BMP180;58451;51.550;7.208;2023-04-24T03:03:00;99348.20;;;8.88
70831;BMP180;58451;51.550;7.208;2023-04-24T03:04:33;99350.60;;;8.88
70831;BMP180;58451;51.550;7.208;2023-04-24T03:06:05;99355.80;;;8.88
70831;BMP180;58451;51.550;7.208;2023-04-24T03:07:39;99355.80;;;8.90
70831;BMP180;58451;51.550;7.208;2023-04-24T03:09:11;99352.00;;;8.90
70831;BMP180;58451;51.550;7.208;2023-04-24T03:10:44;99356.60;;;8.90
70831;BMP180;58451;51.550;7.208;2023-04-24T03:12:19;99353.20;;;8.90
70831;BMP180;58451;51.550;7.208;2023-04-24T03:13:50;99355.80;;;8.90
70831;BMP180;58451;51.550;7.208;2023-04-24T03:15:23;99359.40;;;8.90
70831;BMP180;58451;51.550;7.208;2023-04-24T03:16:55;99357.20;;;8.90
70831;BMP180;58451;51.550;7.208;2023-04-24T03:18:27;99355.40;;;8.90
70831;BMP180;58451;51.550;7.208;2023-04-24T03:19:59;99357.80;;;8.90
70831;BMP180;58451;51.550;7.208;2023-04-24T03:21:31;99353.20;;;8.94
70831;BMP180;58451;51.550;7.208;2023-04-24T03:23:03;99353.00;;;9.00
70831;BMP180;58451;51.550;7.208;2023-04-24T03:24:35;99355.20;;;9.00
70831;BMP180;58451;51.550;7.208;2023-04-24T03:26:08;99356.80;;;9.00
70831;BMP180;58451;51.550;7.208;2023-04-24T03:27:42;99359.00;;;9.00
70831;BMP180;58451;51.550;7.208;2023-04-24T03:29:32;99360.00;;;9.00
70831;BMP180;58451;51.550;7.208;2023-04-24T03:31:04;99359.40;;;9.00
70831;BMP180;58451;51.550;7.208;2023-04-24T03:32:38;99357.40;;;9.04
70831;BMP180;58451;51.550;7.208;2023-04-24T03:34:11;99362.00;;;9.10
70831;BMP180;58451;51.550;7.208;2023-04-24T03:35:43;99358.80;;;9.10
70831;BMP180;58451;51.550;7.208;2023-04-24T03:37:17;99361.60;;;9.10
70831;BMP180;58451;51.550;7.208;2023-04-24T03:38:54;99361.00;;;9.10
70831;BMP180;58451;51.550;7.208;2023-04-24T03:40:32;99357.60;;;9.10
70831;BMP180;58451;51.550;7.208;2023-04-24T03:42:05;99356.40;;;9.10
70831;BMP180;58451;51.550;7.208;2023-04-24T03:43:46;99358.00;;;9.10
70831;BMP180;58451;51.550;7.208;2023-04-24T03:45:19;99352.00;;;9.10
70831;BMP180;58451;51.550;7.208;2023-04-24T03:46:52;99358.20;;;9.14
70831;BMP180;58451;51.550;7.208;2023-04-24T03:48:25;99357.40;;;9.14
70831;BMP180;58451;51.550;7.208;2023-04-24T03:49:58;99361.20;;;9.20
70831;BMP180;58451;51.550;7.208;2023-04-24T03:51:30;99356.60;;;9.20
70831;BMP180;58451;51.550;7.208;2023-04-24T03:53:11;99364.00;;;9.20
70831;BMP180;58451;51.550;7.208;2023-04-24T03:54:44;99359.80;;;9.20
70831;BMP180;58451;51.550;7.208;2023-04-24T03:56:16;99360.20;;;9.20
70831;BMP180;58451;51.550;7.208;2023-04-24T03:57:48;99363.20;;;9.20
70831;BMP180;58451;51.550;7.208;2023-04-24T03:59:25;99360.40;;;9.20
70831;BMP180;58451;51.550;7.208;2023-04-24T04:01:08;99364.00;;;9.20
70831;BMP180;58451;51.550;7.208;2023-04-24T04:02:48;99358.80;;;9.20
70831;BMP180;58451;51.550;7.208;2023-04-24T04:04:21;99360.80;;;9.20
70831;BMP180;58451;51.550;7.208;2023-04-24T04:05:54;99361.60;;;9.20
70831;BMP180;58451;51.550;7.208;2023-04-24T04:07:26;99361.00;;;9.20
70831;BMP180;58451;51.550;7.208;2023-04-24T04:08:58;99365.80;;;9.20
70831;BMP180;58451;51.550;7.208;2023-04-24T04:10:31;99364.00;;;9.22
70831;BMP180;58451;51.550;7.208;2023-04-24T04:12:02;99363.60;;;9.28
70831;BMP180;58451;51.550;7.208;2023-04-24T04:13:36;99366.40;;;9.30
70831;BMP180;58451;51.550;7.208;2023-04-24T04:15:09;99367.80;;;9.30
70831;BMP180;58451;51.550;7.208;2023-04-24T04:16:41;99370.40;;;9.30
70831;BMP180;58451;51.550;7.208;2023-04-24T04:18:14;99378.60;;;9.28
70831;BMP180;58451;51.550;7.208;2023-04-24T04:19:46;99375.60;;;9.22
70831;BMP180;58451;51.550;7.208;2023-04-24T04:21:18;99377.20;;;9.30
70831;BMP180;58451;51.550;7.208;2023-04-24T04:22:50;99372.80;;;9.30
70831;BMP180;58451;51.550;7.208;2023-04-24T04:24:27;99369.80;;;9.30
70831;BMP180;58451;51.550;7.208;2023-04-24T04:26:03;99376.60;;;9.30
70831;BMP180;58451;51.550;7.208;2023-04-24T04:27:50;99377.60;;;9.30
70831;BMP180;58451;51.550;7.208;2023-04-24T04:29:24;99375.60;;;9.30
70831;BMP180;58451;51.550;7.208;2023-04-24T04:31:00;99374.80;;;9.30
70831;BMP180;58451;51.550;7.208;2023-04-24T04:32:37;99373.60;;;9.30
70831;BMP180;58451;51.550;7.208;2023-04-24T04:34:11;99377.60;;;9.30
70831;BMP180;58451;51.550;7.208;2023-04-24T04:35:49;99379.60;;;9.30
70831;BMP180;58451;51.550;7.208;2023-04-24T04:37:31;99383.60;;;9.30
70831;BMP180;58451;51.550;7.208;2023-04-24T04:39:41;99385.00;;;9.30
70831;BMP180;58451;51.550;7.208;2023-04-24T04:41:22;99384.80;;;9.30
70831;BMP180;58451;51.550;7.208;2023-04-24T04:42:55;99383.20;;;9.30
70831;BMP180;58451;51.550;7.208;2023-04-24T04:44:27;99386.20;;;9.30
70831;BMP180;58451;51.550;7.208;2023-04-24T04:46:01;99385.20;;;9.30
70831;BMP180;58451;51.550;7.208;2023-04-24T04:47:58;99388.80;;;9.30
70831;BMP180;58451;51.550;7.208;2023-04-24T04:49:34;99383.00;;;9.30
70831;BMP180;58451;51.550;7.208;2023-04-24T04:51:09;99388.60;;;9.30
70831;BMP180;58451;51.550;7.208;2023-04-24T04:52:42;99388.20;;;9.30
70831;BMP180;58451;51.550;7.208;2023-04-24T04:54:26;99384.20;;;9.32
70831;BMP180;58451;51.550;7.208;2023-04-24T04:55:58;99387.00;;;9.40
70831;BMP180;58451;51.550;7.208;2023-04-24T04:57:38;99379.20;;;9.40
70831;BMP180;58451;51.550;7.208;2023-04-24T04:59:09;99386.20;;;9.30
70831;BMP180;58451;51.550;7.208;2023-04-24T05:00:42;99386.20;;;9.38
70831;BMP180;58451;51.550;7.208;2023-04-24T05:02:35;99386.20;;;9.40
70831;BMP180;58451;51.550;7.208;2023-04-24T05:04:07;99383.80;;;9.40
70831;BMP180;58451;51.550;7.208;2023-04-24T05:05:41;99391.80;;;9.40
70831;BMP180;58451;51.550;7.208;2023-04-24T05:07:15;99388.20;;;9.40
70831;BMP180;58451;51.550;7.208;2023-04-24T05:08:49;99387.00;;;9.40
70831;BMP180;58451;51.550;7.208;2023-04-24T05:10:37;99388.80;;;9.40
70831;BMP180;58451;51.550;7.208;2023-04-24T05:12:09;99384.80;;;9.40
70831;BMP180;58451;51.550;7.208;2023-04-24T05:13:45;99380.80;;;9.48
70831;BMP180;58451;51.550;7.208;2023-04-24T05:15:22;99381.80;;;9.50
70831;BMP180;58451;51.550;7.208;2023-04-24T05:16:54;99381.80;;;9.50
70831;BMP180;58451;51.550;7.208;2023-04-24T05:18:27;99382.40;;;9.50
70831;BMP180;58451;51.550;7.208;2023-04-24T05:19:58;99388.20;;;9.60
70831;BMP180;58451;51.550;7.208;2023-04-24T05:21:30;99377.00;;;9.60
70831;BMP180;58451;51.550;7.208;2023-04-24T05:23:02;99379.20;;;9.60
70831;BMP180;58451;51.550;7.208;2023-04-24T05:24:35;99379.20;;;9.60
70831;BMP180;58451;51.550;7.208;2023-04-24T05:26:16;99380.80;;;9.70
70831;BMP180;58451;51.550;7.208;2023-04-24T05:27:49;99383.80;;;9.70
70831;BMP180;58451;51.550;7.208;2023-04-24T05:29:21;99383.00;;;9.70
70831;BMP180;58451;51.550;7.208;2023-04-24T05:30:54;99383.20;;;9.70
70831;BMP180;58451;51.550;7.208;2023-04-24T05:32:30;99389.40;;;9.70
70831;BMP180;58451;51.550;7.208;2023-04-24T05:34:02;99378.60;;;9.70
70831;BMP180;58451;51.550;7.208;2023-04-24T05:35:34;99386.20;;;9.60
70831;BMP180;58451;51.550;7.208;2023-04-24T05:37:06;99384.00;;;9.60
70831;BMP180;58451;51.550;7.208;2023-04-24T05:38:41;99378.60;;;9.60
70831;BMP180;58451;51.550;7.208;2023-04-24T05:40:13;99376.80;;;9.60
70831;BMP180;58451;51.550;7.208;2023-04-24T05:41:45;99380.00;;;9.60
70831;BMP180;58451;51.550;7.208;2023-04-24T05:43:17;99378.40;;;9.60
70831;BMP180;58451;51.550;7.208;2023-04-24T05:44:49;99380.60;;;9.60
70831;BMP180;58451;51.550;7.208;2023-04-24T05:46:24;99388.40;;;9.60
70831;BMP180;58451;51.550;7.208;2023-04-24T05:47:56;99392.40;;;9.60
70831;BMP180;58451;51.550;7.208;2023-04-24T05:49:28;99396.40;;;9.60
70831;BMP180;58451;51.550;7.208;2023-04-24T05:51:00;99401.80;;;9.60
70831;BMP180;58451;51.550;7.208;2023-04-24T05:52:32;99405.80;;;9.60
70831;BMP180;58451;51.550;7.208;2023-04-24T05:54:05;99407.40;;;9.50
70831;BMP180;58451;51.550;7.208;2023-04-24T05:55:36;99411.00;;;9.44
70831;BMP180;58451;51.550;7.208;2023-04-24T05:57:08;99411.00;;;9.40
70831;BMP180;58451;51.550;7.208;2023-04-24T05:59:00;99412.60;;;9.40
70831;BMP180;58451;51.550;7.208;2023-04-24T06:00:32;99408.20;;;9.40
70831;BMP180;58451;51.550;7.208;2023-04-24T06:02:08;99405.80;;;9.32
70831;BMP180;58451;51.550;7.208;2023-04-24T06:03:41;99405.40;;;9.30
70831;BMP180;58451;51.550;7.208;2023-04-24T06:05:13;99403.40;;;9.26
70831;BMP180;58451;51.550;7.208;2023-04-24T06:06:46;99407.80;;;9.20
70831;BMP180;58451;51.550;7.208;2023-04-24T06:08:22;99403.40;;;9.20
70831;BMP180;58451;51.550;7.208;2023-04-24T06:09:54;99405.00;;;9.18
70831;BMP180;58451;51.550;7.208;2023-04-24T06:11:26;99403.80;;;9.02
70831;BMP180;58451;51.550;7.208;2023-04-24T06:12:58;99401.40;;;9.10
70831;BMP180;58451;51.550;7.208;2023-04-24T06:14:33;99401.00;;;9.10
70831;BMP180;58451;51.550;7.208;2023-04-24T06:16:20;99405.80;;;9.08
70831;BMP180;58451;51.550;7.208;2023-04-24T06:17:57;99408.40;;;9.00
70831;BMP180;58451;51.550;7.208;2023-04-24T06:19:29;99407.00;;;8.98
70831;BMP180;58451;51.550;7.208;2023-04-24T06:21:01;99407.80;;;9.00
70831;BMP180;58451;51.550;7.208;2023-04-24T06:22:33;99410.40;;;9.00
70831;BMP180;58451;51.550;7.208;2023-04-24T06:24:07;99416.20;;;9.00
70831;BMP180;58451;51.550;7.208;2023-04-24T06:25:39;99413.40;;;9.00
70831;BMP180;58451;51.550;7.208;2023-04-24T06:27:11;99416.60;;;9.00
70831;BMP180;58451;51.550;7.208;2023-04-24T06:28:44;99417.60;;;9.00
70831;BMP180;58451;51.550;7.208;2023-04-24T06:30:16;99420.20;;;9.00
70831;BMP180;58451;51.550;7.208;2023-04-24T06:31:48;99414.60;;;9.00
70831;BMP180;58451;51.550;7.208;2023-04-24T06:33:20;99407.80;;;9.00
70831;BMP180;58451;51.550;7.208;2023-04-24T06:34:54;99409.80;;;9.00
70831;BMP180;58451;51.550;7.208;2023-04-24T06:36:28;99403.00;;;9.02
70831;BMP180;58451;51.550;7.208;2023-04-24T06:38:00;99407.80;;;9.10
70831;BMP180;58451;51.550;7.208;2023-04-24T06:39:32;99409.40;;;9.10
70831;BMP180;58451;51.550;7.208;2023-04-24T06:41:04;99406.60;;;9.10
70831;BMP180;58451;51.550;7.208;2023-04-24T06:42:37;99409.20;;;9.16
70831;BMP180;58451;51.550;7.208;2023-04-24T06:44:12;99411.80;;;9.20
70831;BMP180;58451;51.550;7.208;2023-04-24T06:45:46;99412.20;;;9.20
70831;BMP180;58451;51.550;7.208;2023-04-24T06:47:18;99410.60;;;9.20
70831;BMP180;58451;51.550;7.208;2023-04-24T06:48:50;99406.00;;;9.30
70831;BMP180;58451;51.550;7.208;2023-04-24T06:50:22;99410.00;;;9.40
70831;BMP180;58451;51.550;7.208;2023-04-24T06:51:54;99409.20;;;9.40
70831;BMP180;58451;51.550;7.208;2023-04-24T06:53:25;99410.00;;;9.40
70831;BMP180;58451;51.550;7.208;2023-04-24T06:55:03;99409.40;;;9.44
70831;BMP180;58451;51.550;7.208;2023-04-24T06:56:35;99409.20;;;9.50
70831;BMP180;58451;51.550;7.208;2023-04-24T06:58:07;99400.20;;;9.46
70831;BMP180;58451;51.550;7.208;2023-04-24T06:59:39;99400.20;;;9.50
70831;BMP180;58451;51.550;7.208;2023-04-24T07:01:11;99403.40;;;9.50
70831;BMP180;58451;51.550;7.208;2023-04-24T07:02:43;99403.60;;;9.50
70831;BMP180;58451;51.550;7.208;2023-04-24T07:04:15;99404.20;;;9.50
70831;BMP180;58451;51.550;7.208;2023-04-24T07:05:48;99404.80;;;9.44
70831;BMP180;58451;51.550;7.208;2023-04-24T07:07:20;99405.20;;;9.50
70831;BMP180;58451;51.550;7.208;2023-04-24T07:08:55;99398.00;;;9.40
70831;BMP180;58451;51.550;7.208;2023-04-24T07:10:27;99405.20;;;9.40
70831;BMP180;58451;51.550;7.208;2023-04-24T07:12:00;99400.40;;;9.44
70831;BMP180;58451;51.550;7.208;2023-04-24T07:13:32;99402.20;;;9.60
70831;BMP180;58451;51.550;7.208;2023-04-24T07:15:05;99398.20;;;9.80
70831;BMP180;58451;51.550;7.208;2023-04-24T07:16:37;99397.20;;;9.94
70831;BMP180;58451;51.550;7.208;2023-04-24T07:18:09;99398.20;;;10.00
70831;BMP180;58451;51.550;7.208;2023-04-24T07:19:41;99399.80;;;10.10
70831;BMP180;58451;51.550;7.208;2023-04-24T07:21:14;99397.80;;;10.00
70831;BMP180;58451;51.550;7.208;2023-04-24T07:22:45;99398.60;;;10.00
70831;BMP180;58451;51.550;7.208;2023-04-24T07:24:17;99403.40;;;9.98
70831;BMP180;58451;51.550;7.208;2023-04-24T07:25:52;99401.80;;;9.92
70831;BMP180;58451;51.550;7.208;2023-04-24T07:27:25;99404.00;;;9.90
70831;BMP180;58451;51.550;7.208;2023-04-24T07:28:57;99415.40;;;9.80
70831;BMP180;58451;51.550;7.208;2023-04-24T07:30:29;99413.00;;;9.70
70831;BMP180;58451;51.550;7.208;2023-04-24T07:32:01;99413.40;;;9.60
70831;BMP180;58451;51.550;7.208;2023-04-24T07:33:34;99417.20;;;9.50
70831;BMP180;58451;51.550;7.208;2023-04-24T07:35:08;99418.60;;;9.40
70831;BMP180;58451;51.550;7.208;2023-04-24T07:36:41;99416.40;;;9.40
70831;BMP180;58451;51.550;7.208;2023-04-24T07:38:13;99408.80;;;9.32
70831;BMP180;58451;51.550;7.208;2023-04-24T07:39:45;99412.00;;;9.36
70831;BMP180;58451;51.550;7.208;2023-04-24T07:41:17;99418.00;;;9.40
70831;BMP180;58451;51.550;7.208;2023-04-24T07:42:49;99415.60;;;9.50
70831;BMP180;58451;51.550;7.208;2023-04-24T07:44:21;99415.60;;;9.50
70831;BMP180;58451;51.550;7.208;2023-04-24T07:45:53;99414.80;;;9.46
70831;BMP180;58451;51.550;7.208;2023-04-24T07:47:25;99422.00;;;9.40
70831;BMP180;58451;51.550;7.208;2023-04-24T07:48:57;99414.80;;;9.34
70831;BMP180;58451;51.550;7.208;2023-04-24T07:50:45;99418.20;;;9.20
70831;BMP180;58451;51.550;7.208;2023-04-24T07:52:17;99415.00;;;9.20
70831;BMP180;58451;51.550;7.208;2023-04-24T07:53:48;99416.00;;;9.10
70831;BMP180;58451;51.550;7.208;2023-04-24T07:55:20;99424.60;;;9.10
70831;BMP180;58451;51.550;7.208;2023-04-24T07:56:56;99428.80;;;9.10
70831;BMP180;58451;51.550;7.208;2023-04-24T07:58:28;99428.00;;;9.18
70831;BMP180;58451;51.550;7.208;2023-04-24T07:59:59;99429.60;;;9.20
70831;BMP180;58451;51.550;7.208;2023-04-24T08:01:41;99434.80;;;9.20
70831;BMP180;58451;51.550;7.208;2023-04-24T08:03:14;99424.40;;;9.30
70831;BMP180;58451;51.550;7.208;2023-04-24T08:04:46;99432.80;;;9.42
70831;BMP180;58451;51.550;7.208;2023-04-24T08:06:18;99432.80;;;9.50
70831;BMP180;58451;51.550;7.208;2023-04-24T08:07:50;99426.40;;;9.50
70831;BMP180;58451;51.550;7.208;2023-04-24T08:09:22;99426.80;;;9.60
70831;BMP180;58451;51.550;7.208;2023-04-24T08:10:54;99429.60;;;9.60
70831;BMP180;58451;51.550;7.208;2023-04-24T08:12:30;99428.80;;;9.76
70831;BMP180;58451;51.550;7.208;2023-04-24T08:14:02;99431.00;;;9.80
70831;BMP180;58451;51.550;7.208;2023-04-24T08:15:34;99437.40;;;9.80
70831;BMP180;58451;51.550;7.208;2023-04-24T08:17:06;99445.40;;;9.80
70831;BMP180;58451;51.550;7.208;2023-04-24T08:18:38;99436.00;;;9.68
70831;BMP180;58451;51.550;7.208;2023-04-24T08:20:11;99443.60;;;9.72
70831;BMP180;58451;51.550;7.208;2023-04-24T08:21:45;99450.20;;;9.70
70831;BMP180;58451;51.550;7.208;2023-04-24T08:23:17;99453.00;;;9.52
70831;BMP180;58451;51.550;7.208;2023-04-24T08:24:49;99459.80;;;9.40
70831;BMP180;58451;51.550;7.208;2023-04-24T08:26:21;99450.80;;;9.30
70831;BMP180;58451;51.550;7.208;2023-04-24T08:27:53;99454.00;;;9.30
70831;BMP180;58451;51.550;7.208;2023-04-24T08:29:26;99460.40;;;9.22
70831;BMP180;58451;51.550;7.208;2023-04-24T08:30:58;99454.80;;;9.20
70831;BMP180;58451;51.550;7.208;2023-04-24T08:32:30;99464.60;;;9.12
70831;BMP180;58451;51.550;7.208;2023-04-24T08:34:01;99467.20;;;9.00
70831;BMP180;58451;51.550;7.208;2023-04-24T08:35:33;99470.60;;;8.90
70831;BMP180;58451;51.550;7.208;2023-04-24T08:37:05;99473.00;;;8.90
70831;BMP180;58451;51.550;7.208;2023-04-24T08:38:37;99468.60;;;8.90
70831;BMP180;58451;51.550;7.208;2023-04-24T08:40:14;99470.00;;;8.86
70831;BMP180;58451;51.550;7.208;2023-04-24T08:41:48;99473.20;;;8.90
70831;BMP180;58451;51.550;7.208;2023-04-24T08:43:22;99470.00;;;8.80
70831;BMP180;58451;51.550;7.208;2023-04-24T08:44:54;99475.40;;;8.80
70831;BMP180;58451;51.550;7.208;2023-04-24T08:46:27;99476.40;;;8.70
70831;BMP180;58451;51.550;7.208;2023-04-24T08:47:59;99475.60;;;8.60
70831;BMP180;58451;51.550;7.208;2023-04-24T08:49:33;99479.80;;;8.60
70831;BMP180;58451;51.550;7.208;2023-04-24T08:51:07;99487.40;;;8.60
70831;BMP180;58451;51.550;7.208;2023-04-24T08:52:41;99487.00;;;8.60
70831;BMP180;58451;51.550;7.208;2023-04-24T08:54:14;99483.00;;;8.56
70831;BMP180;58451;51.550;7.208;2023-04-24T08:55:48;99480.80;;;8.50
70831;BMP180;58451;51.550;7.208;2023-04-24T08:57:20;99488.60;;;8.50
70831;BMP180;58451;51.550;7.208;2023-04-24T08:58:53;99486.00;;;8.40
70831;BMP180;58451;51.550;7.208;2023-04-24T09:00:27;99490.60;;;8.40
70831;BMP180;58451;51.550;7.208;2023-04-24T09:02:00;99502.40;;;8.40
70831;BMP180;58451;51.550;7.208;2023-04-24T09:03:33;99496.40;;;8.40
70831;BMP180;58451;51.550;7.208;2023-04-24T09:05:06;99499.00;;;8.40
70831;BMP180;58451;51.550;7.208;2023-04-24T09:06:39;99498.80;;;8.40